Portada
METAR-TAF:

METAR-TAF

Aeroports :

Wuhan, Xina

latitud: 30-37N, longitud: 114-08E, altitud: 23 m

Observació

L'informe es va fer fa 57 minuts, a les 20:00 UTC
Vent 6 kt del Nord-Est
Temperatura 28°C
Humitat 84%
Pressió 1004 hPa
Visibilitat 10 km o més
sense núvols per sota de 1500 mi sense presència de cumulonimbus.

METAR: ZHHH 252000Z 04003MPS CAVOK 28/25 Q1004 NOSIG

Hora: 04:57 (20:57 UTC)

Pronòstic

L'informe es va fer fa 5 hores i 54 minuts, a les 15:03 UTC
Pronòstic vàlid del 25 a les 18 UTC al 26 a les 18 UTC
Vent 8 kt del Nord-Est
Visibilitat: 6000 m

TAF: ZHHH 251503Z 2518/2618 04004MPS 6000 NSC TX36/2607Z TN26/2522Z

Observacions i pronòstics meteorològics de més de 4000 aeroports (METAR i TAF).

Les estacions disponibles són els punts grocs i vermells al mapa.

Posi el ratolí al punt desitjat per veure el nom de l'estació.

Feu clic per veure les observacions i els pronòstics meteorològics.

Per canviar el mapa: feu clic els botons verds amb una creu de color negre per apropar; al botó verd amb un guió per allunyar la imatge; o en les fletxes verdes per a mapes adjacents.


METAR-TAF: